Time;durP1;ratioP1;P1;durP2;ratioP2;P2;SDS_P1;SDS_P2;PMS_P1;PMS_P2;Temp;Humidity;BMP_temperature;BMP_pressure;BME280_temperature;BME280_humidity;BME280_pressure;Samples;Min_cycle;Max_cycle;Signal;HPM_P1;HPM_P2
2022/11/30 00:00:51;;;;;;;64.90;38.17;;;;;;;2.33;75.68;102558.57;1621675;86;21048;-86
2022/11/30 00:03:19;;;;;;;63.75;39.70;;;;;;;2.35;75.67;102554.41;1642765;86;22033;-82
2022/11/30 00:05:46;;;;;;;58.15;37.40;;;;;;;2.39;75.65;102559.49;1641356;86;22228;-82
2022/11/30 00:08:13;;;;;;;55.30;35.63;;;;;;;2.38;75.55;102553.76;1644534;86;21101;-86
2022/11/30 00:10:40;;;;;;;56.35;35.20;;;;;;;2.35;75.49;102563.51;1638894;86;21099;-86
2022/11/30 00:13:07;;;;;;;49.98;32.90;;;;;;;2.32;75.56;102559.33;1640735;87;21811;-86
2022/11/30 00:15:35;;;;;;;44.63;30.43;;;;;;;2.32;75.57;102558.94;1615838;87;22016;-86
2022/11/30 00:18:01;;;;;;;46.18;30.82;;;;;;;2.32;75.54;102563.23;1637436;86;21087;-86
2022/11/30 00:20:29;;;;;;;44.00;30.43;;;;;;;2.33;75.60;102562.47;1641931;86;21051;-86
2022/11/30 00:22:56;;;;;;;44.40;30.55;;;;;;;2.34;75.59;102564.27;1638033;87;21698;-81
2022/11/30 00:25:23;;;;;;;44.67;30.48;;;;;;;2.32;75.54;102558.94;1639670;86;21096;-81
2022/11/30 00:27:51;;;;;;;47.62;32.58;;;;;;;2.34;75.63;102557.38;1636354;85;21741;-81
2022/11/30 00:30:18;;;;;;;51.90;33.83;;;;;;;2.36;75.63;102556.22;1626493;86;21651;-81
2022/11/30 00:32:44;;;;;;;57.13;33.88;;;;;;;2.33;75.50;102558.57;1638977;86;21047;-80
2022/11/30 00:35:11;;;;;;;56.48;35.43;;;;;;;2.33;75.58;102559.47;1639708;86;21016;-85
2022/11/30 00:37:38;;;;;;;50.65;33.28;;;;;;;2.33;75.58;102562.47;1644243;86;21051;-86
2022/11/30 00:40:06;;;;;;;52.13;33.13;;;;;;;2.33;75.60;102558.57;1640702;86;21700;-80
2022/11/30 00:42:33;;;;;;;47.40;32.40;;;;;;;2.34;75.65;102559.08;1644170;86;21040;-81
2022/11/30 00:45:00;;;;;;;48.92;30.48;;;;;;;2.33;75.61;102559.47;1644253;86;21568;-81
2022/11/30 00:47:26;;;;;;;42.62;30.85;;;;;;;2.31;75.56;102554.93;1641699;86;21048;-85
2022/11/30 00:49:53;;;;;;;43.83;30.40;;;;;;;2.30;75.59;102551.39;1640839;85;21011;-85
2022/11/30 00:52:20;;;;;;;46.63;30.72;;;;;;;2.28;75.60;102552.95;1635356;86;22519;-85
2022/11/30 00:54:46;;;;;;;43.15;29.20;;;;;;;2.30;75.59;102554.39;1638322;86;21008;-81
2022/11/30 00:57:13;;;;;;;42.40;29.80;;;;;;;2.31;75.64;102558.83;1641232;86;21695;-85
2022/11/30 00:59:40;;;;;;;45.67;30.55;;;;;;;2.29;75.57;102556.45;1641980;87;21064;-82
2022/11/30 01:02:07;;;;;;;45.95;30.48;;;;;;;2.29;75.64;102557.39;1640491;86;21024;-86
2022/11/30 01:04:36;;;;;;;48.45;32.85;;;;;;;2.33;75.67;102557.27;1639245;85;21816;-86
2022/11/30 01:07:03;;;;;;;48.15;32.70;;;;;;;2.32;75.63;102562.83;1672345;84;20992;-85
2022/11/30 01:09:29;;;;;;;48.78;31.82;;;;;;;2.32;75.63;102556.73;1638251;86;21036;-85
2022/11/30 01:11:56;;;;;;;46.37;30.35;;;;;;;2.30;75.65;102561.79;1666587;84;20988;-85
2022/11/30 01:14:25;;;;;;;43.80;30.32;;;;;;;2.33;75.72;102563.77;1672849;84;20996;-86
2022/11/30 01:16:52;;;;;;;48.48;31.82;;;;;;;2.32;75.70;102561.53;1669917;85;21845;-86
2022/11/30 01:19:18;;;;;;;42.85;29.85;;;;;;;2.32;75.64;102563.23;1661601;85;21067;-86
2022/11/30 01:21:45;;;;;;;46.42;30.27;;;;;;;2.30;75.67;102561.79;1662710;84;21120;-82
2022/11/30 01:24:12;;;;;;;44.13;28.50;;;;;;;2.29;75.71;102567.78;1656982;85;22111;-86
2022/11/30 01:26:39;;;;;;;43.45;28.85;;;;;;;2.29;75.70;102569.44;1668192;84;21236;-82
2022/11/30 01:29:06;;;;;;;42.13;29.12;;;;;;;2.30;75.78;102563.48;1640982;84;21759;-86
2022/11/30 01:31:32;;;;;;;46.98;30.43;;;;;;;2.31;75.81;102566.63;1641131;86;21049;-86
2022/11/30 01:34:00;;;;;;;47.88;32.98;;;;;;;2.31;75.77;102570.13;1633576;86;21939;-85
2022/11/30 01:36:27;;;;;;;48.45;31.48;;;;;;;2.33;75.79;102570.27;1644394;86;21106;-85
2022/11/30 01:38:56;;;;;;;43.92;29.55;;;;;;;2.34;75.81;102570.38;1643773;86;21163;-85
2022/11/30 01:41:28;;;;;;;44.10;29.75;;;;;;;2.36;75.83;102571.81;1644169;85;21890;-81
2022/11/30 01:44:07;;;;;;;44.13;30.88;;;;;;;2.39;75.83;102573.78;1643800;85;21087;-80
2022/11/30 01:46:48;;;;;;;44.60;29.18;;;;;;;2.39;75.83;102577.28;1643013;85;21475;-79
2022/11/30 01:49:26;;;;;;;41.88;28.20;;;;;;;2.39;75.83;102570.79;1645427;85;21159;-79
2022/11/30 01:52:06;;;;;;;44.90;29.37;;;;;;;2.38;75.81;102566.35;1642107;86;21099;-82
2022/11/30 01:55:00;;;;;;;47.85;29.95;;;;;;;2.36;75.78;102574.41;1638055;86;21907;-82
2022/11/30 01:57:37;;;;;;;41.28;28.30;;;;;;;2.36;75.84;102576.10;1640676;86;21091;-80
2022/11/30 02:00:07;;;;;;;42.98;27.65;;;;;;;2.37;75.87;102580.55;1636828;85;21107;-80
2022/11/30 02:03:03;;;;;;;39.63;28.25;;;;;;;2.36;75.91;102574.41;1629211;86;21060;-82
2022/11/30 02:05:30;;;;;;;40.95;28.98;;;;;;;2.37;75.92;102568.84;1678471;84;21686;-79
2022/11/30 02:07:57;;;;;;;40.70;27.75;;;;;;;2.41;75.96;102570.53;1648342;86;22924;-84
2022/11/30 02:10:32;;;;;;;42.33;28.85;;;;;;;2.39;75.88;102568.19;1675206;84;21595;-87
2022/11/30 02:13:48;;;;;;;41.77;27.77;;;;;;;2.40;75.93;102571.69;1646589;85;20995;-85
2022/11/30 02:16:53;;;;;;;41.20;27.55;;;;;;;2.39;75.88;102569.49;1645733;86;21495;-85
2022/11/30 02:19:52;;;;;;;41.77;28.00;;;;;;;2.38;75.87;102560.25;1644361;86;21724;-85
2022/11/30 02:22:49;;;;;;;43.78;29.23;;;;;;;2.33;75.87;102554.67;1644461;86;21753;-84
2022/11/30 02:25:32;;;;;;;40.05;28.17;;;;;;;2.29;75.86;102561.65;1598788;87;21152;-80
2022/11/30 02:28:16;;;;;;;40.52;27.87;;;;;;;2.27;75.95;102561.91;1628453;86;21095;-85
2022/11/30 02:30:45;;;;;;;43.45;27.50;;;;;;;2.26;76.02;102565.30;1607950;87;21547;-80
2022/11/30 02:33:17;;;;;;;39.50;27.10;;;;;;;2.25;76.04;102567.36;1617404;87;21000;-85
2022/11/30 02:35:47;;;;;;;41.58;28.47;;;;;;;2.26;76.03;102566.60;1628282;86;21946;-80
2022/11/30 02:38:13;;;;;;;38.50;27.02;;;;;;;2.24;76.06;102562.56;1618576;87;21022;-85
2022/11/30 02:40:40;;;;;;;40.90;27.93;;;;;;;2.25;76.08;102569.59;1608586;87;20988;-85
2022/11/30 02:43:08;;;;;;;39.03;27.73;;;;;;;2.26;76.11;102571.40;1629000;87;21623;-85
2022/11/30 02:46:07;;;;;;;38.08;26.23;;;;;;;2.26;76.02;102574.39;1627874;87;21467;-84
2022/11/30 02:48:51;;;;;;;37.42;26.27;;;;;;;2.24;76.01;102567.76;1619667;87;21811;-84
2022/11/30 02:51:18;;;;;;;;;;;;;;;2.24;76.07;102569.45;1627385;87;21738;-84
2022/11/30 02:53:45;;;;;;;37.88;25.60;;;;;;;2.25;76.07;102579.98;1633469;86;20442;-85
2022/11/30 02:56:12;;;;;;;38.15;24.95;;;;;;;2.26;76.05;102572.70;1604232;86;21348;-85
2022/11/30 02:58:39;;;;;;;41.28;27.37;;;;;;;2.25;76.01;102584.25;1646621;86;22052;-84
2022/11/30 03:01:06;;;;;;;42.50;28.40;;;;;;;2.25;76.03;102579.98;1644000;86;21733;-84
2022/11/30 03:03:32;;;;;;;41.98;27.42;;;;;;;2.24;76.00;102583.34;1638477;84;20989;-84
2022/11/30 03:05:59;;;;;;;40.00;26.65;;;;;;;2.21;75.94;102579.56;1634305;86;21506;-84
2022/11/30 03:08:26;;;;;;;40.78;28.12;;;;;;;2.20;75.97;102580.36;1640680;86;21588;-84
2022/11/30 03:10:53;;;;;;;38.67;26.97;;;;;;;2.19;75.94;102579.42;1639630;86;21474;-80
2022/11/30 03:13:19;;;;;;;42.00;28.35;;;;;;;2.19;75.96;102586.32;1642323;86;21765;-80
2022/11/30 03:15:46;;;;;;;40.15;27.27;;;;;;;2.16;75.89;102575.64;1643550;86;21040;-80
2022/11/30 03:18:13;;;;;;;38.75;26.55;;;;;;;2.15;75.90;102579.94;1637325;86;21031;-80
2022/11/30 03:20:43;;;;;;;39.88;26.40;;;;;;;2.11;75.88;102585.64;1639115;86;21072;-80
2022/11/30 03:23:09;;;;;;;38.73;26.80;;;;;;;2.09;75.89;102593.30;1636472;85;21153;-79
2022/11/30 03:25:36;;;;;;;39.73;26.37;;;;;;;2.09;75.93;102589.80;1642770;86;22413;-84
2022/11/30 03:28:03;;;;;;;38.73;28.02;;;;;;;2.09;75.96;102593.30;1641812;86;21019;-85
2022/11/30 03:30:30;;;;;;;42.93;28.50;;;;;;;2.11;76.00;102600.83;1641060;86;21032;-84
2022/11/30 03:32:56;;;;;;;43.73;28.73;;;;;;;2.09;75.88;102598.48;1635985;86;21028;-84
2022/11/30 03:35:23;;;;;;;39.20;27.90;;;;;;;2.09;75.93;102605.38;1640605;86;21100;-80
2022/11/30 03:37:50;;;;;;;38.92;27.00;;;;;;;2.08;76.00;102610.97;1637915;86;21769;-80
2022/11/30 03:40:17;;;;;;;42.60;27.65;;;;;;;2.07;75.97;102608.23;1641239;86;21032;-82
2022/11/30 03:42:44;;;;;;;42.23;28.98;;;;;;;2.06;75.97;102607.30;1640234;86;21019;-79
2022/11/30 03:45:10;;;;;;;39.42;27.45;;;;;;;2.02;75.94;102607.80;1636366;86;21514;-80
2022/11/30 03:47:37;;;;;;;43.23;28.23;;;;;;;1.96;75.95;102607.27;1641853;86;21016;-80
2022/11/30 03:50:05;;;;;;;42.23;28.15;;;;;;;2.02;76.04;102619.49;1640244;86;22475;-80
2022/11/30 03:52:32;;;;;;;39.78;28.20;;;;;;;2.03;76.01;102617.83;1632486;85;21095;-80
2022/11/30 03:54:59;;;;;;;38.88;27.48;;;;;;;2.03;76.01;102623.93;1638905;86;21016;-82
2022/11/30 03:57:26;;;;;;;37.75;27.07;;;;;;;2.07;76.06;102625.12;1640829;86;21407;-85
2022/11/30 03:59:52;;;;;;;43.33;27.90;;;;;;;2.06;76.05;102624.18;1638986;86;21044;-86
2022/11/30 04:02:19;;;;;;;43.17;27.62;;;;;;;2.07;76.07;102627.32;1640769;86;21750;-83
2022/11/30 04:04:46;;;;;;;42.00;29.12;;;;;;;2.05;75.97;102624.97;1613274;86;21020;-85
2022/11/30 04:07:13;;;;;;;42.88;29.87;;;;;;;2.04;76.01;102629.63;1616737;86;21056;-81
2022/11/30 04:09:39;;;;;;;41.28;28.27;;;;;;;2.03;76.03;102626.52;1609575;88;21072;-81
2022/11/30 04:12:06;;;;;;;41.98;27.80;;;;;;;2.02;76.02;102628.59;1610886;88;21568;-80
2022/11/30 04:14:33;;;;;;;41.42;29.12;;;;;;;2.01;75.99;102625.48;1615753;87;21767;-80
2022/11/30 04:17:00;;;;;;;41.85;29.18;;;;;;;2.01;76.03;102624.55;1612605;86;21548;-80
2022/11/30 04:19:26;;;;;;;41.98;28.40;;;;;;;2.04;76.11;102628.73;1606917;86;21106;-80
2022/11/30 04:21:53;;;;;;;42.45;29.02;;;;;;;2.07;76.14;102624.72;1613718;86;22166;-84
2022/11/30 04:24:20;;;;;;;38.13;26.87;;;;;;;2.07;76.05;102625.12;1616349;87;21087;-85
2022/11/30 04:26:47;;;;;;;43.05;28.52;;;;;;;2.08;76.14;102623.02;1612415;87;21903;-84
2022/11/30 04:29:15;;;;;;;39.83;27.82;;;;;;;2.12;76.15;102626.41;1609751;88;22091;-85
2022/11/30 04:31:43;;;;;;;40.05;27.15;;;;;;;2.12;76.05;102624.75;1625158;85;21043;-84
2022/11/30 04:34:10;;;;;;;39.15;27.45;;;;;;;2.12;76.10;102629.95;1603849;87;21139;-85
2022/11/30 04:36:37;;;;;;;38.48;26.77;;;;;;;2.12;76.00;102623.81;1615046;88;21087;-85
2022/11/30 04:39:03;;;;;;;43.95;29.25;;;;;;;2.10;76.01;102629.27;1610271;88;22059;-85
2022/11/30 04:41:30;;;;;;;40.33;28.30;;;;;;;2.10;76.06;102626.66;1618240;86;21501;-85
2022/11/30 04:43:57;;;;;;;45.28;29.30;;;;;;;2.11;76.12;102629.41;1614843;88;21623;-85
2022/11/30 04:46:23;;;;;;;40.98;28.25;;;;;;;2.11;76.05;102627.20;1612193;86;21095;-85
2022/11/30 04:48:50;;;;;;;38.50;28.25;;;;;;;2.10;76.03;102625.37;1603497;88;21118;-80
2022/11/30 04:51:17;;;;;;;40.08;28.23;;;;;;;2.10;76.10;102628.91;1617423;86;21772;-88
2022/11/30 04:56:22;;;;;;;40.92;26.68;;;;;;;2.18;76.10;102626.05;1820152;77;23484;-85
2022/11/30 04:58:49;;;;;;;39.92;28.12;;;;;;;2.14;76.08;102628.39;1787938;79;21108;-84
2022/11/30 05:01:16;;;;;;;42.00;28.20;;;;;;;2.17;76.13;102629.05;1746465;79;21445;-81
2022/11/30 05:03:43;;;;;;;40.60;29.23;;;;;;;2.19;76.12;102639.18;1788824;79;21008;-86
2022/11/30 05:06:17;;;;;;;41.00;27.87;;;;;;;2.19;76.11;102636.98;1784674;79;21050;-85
2022/11/30 05:08:48;;;;;;;44.15;28.92;;;;;;;2.18;76.02;102636.44;1759840;79;21105;-85
2022/11/30 05:11:15;;;;;;;40.00;27.62;;;;;;;2.14;76.08;102637.48;1753940;80;21032;-86
2022/11/30 05:13:41;;;;;;;40.45;28.00;;;;;;;2.13;76.06;102640.84;1767822;80;21770;-81
2022/11/30 05:16:09;;;;;;;44.80;28.00;;;;;;;2.10;76.08;102647.09;1756960;81;20939;-85
2022/11/30 05:18:36;;;;;;;40.78;27.32;;;;;;;2.12;76.13;102647.20;1773260;80;21034;-82
2022/11/30 05:21:03;;;;;;;43.13;28.38;;;;;;;2.12;76.20;102645.53;1766222;80;21027;-85
2022/11/30 05:23:30;;;;;;;39.55;28.20;;;;;;;2.12;76.12;102642.94;1754372;80;21026;-82
2022/11/30 05:25:56;;;;;;;38.42;27.00;;;;;;;2.11;76.13;102645.39;1763449;80;21758;-83
2022/11/30 05:28:23;;;;;;;37.50;26.45;;;;;;;2.12;76.18;102648.50;1767164;80;21092;-84
2022/11/30 05:30:49;;;;;;;42.15;26.70;;;;;;;2.12;76.19;102649.43;1758459;81;21030;-83
2022/11/30 05:33:16;;;;;;;43.52;29.65;;;;;;;2.12;76.20;102649.80;1756379;81;21023;-84
2022/11/30 05:35:43;;;;;;;46.50;29.20;;;;;;;2.10;76.17;102643.19;1764039;80;21038;-84
2022/11/30 05:38:10;;;;;;;40.40;27.58;;;;;;;2.11;76.22;102646.69;1759887;79;22138;-82
2022/11/30 05:40:36;;;;;;;48.95;29.70;;;;;;;2.10;76.22;102649.69;1759850;81;21420;-81
2022/11/30 05:43:04;;;;;;;47.30;29.07;;;;;;;2.10;76.21;102655.24;1770918;80;20964;-81
2022/11/30 05:45:31;;;;;;;47.10;29.72;;;;;;;2.08;76.25;102647.70;1761823;80;21496;-87
2022/11/30 05:47:58;;;;;;;49.75;31.05;;;;;;;2.07;76.22;102652.00;1758892;80;21030;-85
2022/11/30 05:50:25;;;;;;;54.70;29.35;;;;;;;2.05;76.24;102660.05;1771861;80;21735;-85
2022/11/30 05:52:59;;;;;;;50.65;28.90;;;;;;;2.04;76.25;102655.61;1769268;80;21524;-84
2022/11/30 05:55:25;;;;;;;50.10;30.23;;;;;;;2.05;76.31;102665.23;1765435;80;20976;-82
2022/11/30 05:57:52;;;;;;;46.08;28.90;;;;;;;2.06;76.32;102665.74;1765224;80;21033;-81
2022/11/30 06:00:20;;;;;;;47.78;30.05;;;;;;;2.07;76.28;102666.28;1784385;80;20984;-84
2022/11/30 06:02:47;;;;;;;46.63;28.95;;;;;;;2.06;76.26;102668.73;1782370;80;21720;-81
2022/11/30 06:05:14;;;;;;;48.38;31.40;;;;;;;2.05;76.31;102674.33;1782048;80;20992;-83
2022/11/30 06:07:40;;;;;;;44.05;29.10;;;;;;;2.06;76.35;102677.43;1781139;79;21054;-80
2022/11/30 06:10:09;;;;;;;46.05;28.67;;;;;;;2.09;76.36;102675.13;1780704;79;21081;-82
2022/11/30 06:12:36;;;;;;;43.23;30.02;;;;;;;2.11;76.33;102677.87;1778060;80;21722;-85
2022/11/30 06:15:03;;;;;;;44.35;28.73;;;;;;;2.14;76.40;102674.25;1778887;80;22563;-85
2022/11/30 06:17:30;;;;;;;44.50;28.90;;;;;;;2.18;76.34;102676.70;1774082;79;21616;-81
2022/11/30 06:19:57;;;;;;;43.23;29.37;;;;;;;2.16;76.24;102679.56;1778982;80;21046;-82
2022/11/30 06:22:23;;;;;;;45.67;29.63;;;;;;;2.11;76.21;102683.96;1754570;80;21939;-83
2022/11/30 06:24:50;;;;;;;43.38;29.42;;;;;;;2.09;76.16;102685.52;1749511;81;21141;-84
2022/11/30 06:27:17;;;;;;;41.15;27.85;;;;;;;2.08;76.24;102681.47;1753920;80;22117;-83
2022/11/30 06:29:44;;;;;;;41.75;28.02;;;;;;;2.09;76.24;102690.71;1761413;80;21063;-84
2022/11/30 06:32:11;;;;;;;42.33;27.85;;;;;;;2.08;76.25;102682.77;1769872;80;21370;-82
2022/11/30 06:34:37;;;;;;;45.98;31.02;;;;;;;2.12;76.32;102688.40;1772753;80;21031;-86
2022/11/30 06:37:04;;;;;;;47.95;31.25;;;;;;;2.11;76.21;102685.27;1781524;80;21102;-86
2022/11/30 06:39:31;;;;;;;43.38;29.20;;;;;;;2.10;76.20;102691.61;1781636;80;23011;-82
2022/11/30 06:41:58;;;;;;;43.92;28.38;;;;;;;2.08;76.18;102699.30;1778348;80;21090;-83
2022/11/30 06:44:26;;;;;;;44.13;30.05;;;;;;;2.09;76.21;102695.00;1776839;80;22197;-82
2022/11/30 06:46:53;;;;;;;43.73;29.63;;;;;;;2.07;76.19;102698.75;1781358;80;21069;-82
2022/11/30 06:49:19;;;;;;;40.73;28.95;;;;;;;2.04;76.20;102697.16;1783265;79;22033;-82
2022/11/30 06:51:46;;;;;;;42.25;28.23;;;;;;;2.07;76.28;102713.04;1781036;80;21738;-83
2022/11/30 06:54:13;;;;;;;42.95;29.12;;;;;;;2.11;76.33;102709.03;1782363;80;21062;-82
2022/11/30 06:56:40;;;;;;;40.70;29.45;;;;;;;2.11;76.29;102713.84;1781198;80;22077;-86
2022/11/30 06:59:07;;;;;;;47.30;30.95;;;;;;;2.07;76.18;102710.45;1780321;80;21089;-86
2022/11/30 07:01:34;;;;;;;45.25;29.65;;;;;;;2.08;76.29;102713.94;1784158;80;21080;-86
2022/11/30 07:04:00;;;;;;;41.90;28.73;;;;;;;2.10;76.34;102718.53;1782009;80;21941;-86
2022/11/30 07:06:27;;;;;;;39.10;28.40;;;;;;;2.14;76.42;102717.13;1781919;80;22024;-85
2022/11/30 07:08:54;;;;;;;44.70;29.07;;;;;;;2.14;76.30;102728.41;1779272;80;21058;-83
2022/11/30 07:11:21;;;;;;;43.05;27.87;;;;;;;2.14;76.29;102724.52;1764872;80;21975;-82
2022/11/30 07:13:47;;;;;;;45.12;28.92;;;;;;;2.13;76.30;102721.38;1747532;81;21140;-82
2022/11/30 07:16:14;;;;;;;38.65;27.10;;;;;;;2.12;76.28;102725.13;1752692;81;21812;-86
2022/11/30 07:18:41;;;;;;;44.48;28.92;;;;;;;2.13;76.30;102730.47;1774132;80;21042;-83
2022/11/30 07:21:09;;;;;;;41.88;29.75;;;;;;;2.12;76.28;102732.92;1746729;81;21283;-83
2022/11/30 07:26:22;;;;;;;43.20;28.50;;;;;;;2.08;76.26;102739.56;1761907;80;21329;-85
2022/11/30 07:28:53;;;;;;;45.15;29.25;;;;;;;2.05;76.34;102743.16;1764173;80;21773;-86
2022/11/30 07:31:26;;;;;;;56.42;35.10;;;;;;;2.07;76.33;102745.51;1707483;82;21030;-86
2022/11/30 07:33:53;;;;;;;57.40;36.10;;;;;;;2.05;76.34;102748.36;1750456;80;21865;-82
2022/11/30 07:36:22;;;;;;;68.33;40.65;;;;;;;2.10;76.45;102747.47;1782310;80;20967;-85
2022/11/30 07:38:48;;;;;;;65.30;40.03;;;;;;;2.12;76.40;102753.71;1785670;79;21015;-86
2022/11/30 07:41:15;;;;;;;57.33;35.73;;;;;;;2.13;76.36;102754.25;1782343;79;21773;-86
2022/11/30 07:43:42;;;;;;;50.00;32.05;;;;;;;2.14;76.37;102749.59;1783075;79;21007;-83
2022/11/30 07:46:13;;;;;;;44.00;29.10;;;;;;;2.17;76.37;102756.34;1775895;80;21499;-88
2022/11/30 07:48:39;;;;;;;44.53;29.45;;;;;;;2.19;76.40;102752.59;1778139;80;21614;-88
2022/11/30 07:51:09;;;;;;;41.90;26.60;;;;;;;2.10;76.37;102727.62;1780058;80;21444;-85
2022/11/30 07:53:36;;;;;;;51.50;29.85;;;;;;;2.19;76.35;102750.00;1752823;80;21758;-82
2022/11/30 07:56:08;;;;;;;59.83;35.00;;;;;;;2.19;76.33;102748.70;1779157;79;21108;-82
2022/11/30 07:58:37;;;;;;;57.93;35.80;;;;;;;2.18;76.34;102748.16;1775018;80;21078;-82
2022/11/30 08:01:08;;;;;;;49.18;31.60;;;;;;;2.20;76.36;102747.94;1781697;80;21073;-86
2022/11/30 08:03:35;;;;;;;46.65;29.30;;;;;;;2.19;76.35;102748.30;1767424;80;21043;-82
2022/11/30 08:06:21;;;;;;;38.20;26.90;;;;;;;2.19;76.29;102746.10;1731131;80;22589;-85
2022/11/30 08:08:50;;;;;;;40.50;27.40;;;;;;;2.12;76.23;102740.36;1760209;80;21035;-87
2022/11/30 08:11:23;;;;;;;42.55;28.62;;;;;;;2.17;76.34;102747.25;1771641;80;21137;-88
2022/11/30 08:13:56;;;;;;;40.67;27.67;;;;;;;2.18;76.31;102742.96;1770661;80;21075;-86
2022/11/30 08:16:25;;;;;;;40.48;27.02;;;;;;;2.19;76.37;102740.91;1763842;80;21054;-82
2022/11/30 08:18:52;;;;;;;44.27;27.90;;;;;;;2.20;76.37;102748.84;1761224;80;21822;-82
2022/11/30 08:21:19;;;;;;;38.60;27.15;;;;;;;2.21;76.40;102749.35;1763524;80;21000;-85
2022/11/30 08:23:50;;;;;;;46.55;29.25;;;;;;;2.25;76.41;102747.59;1782544;80;21087;-82
2022/11/30 08:26:23;;;;;;;45.23;28.95;;;;;;;2.26;76.37;102745.49;1780345;80;21093;-85
2022/11/30 08:28:50;;;;;;;43.80;28.95;;;;;;;2.19;76.41;102727.91;1739076;80;21047;-88
2022/11/30 08:31:23;;;;;;;45.33;29.48;;;;;;;2.31;76.40;102745.53;1781571;80;21692;-87
2022/11/30 08:33:55;;;;;;;41.35;29.10;;;;;;;2.35;76.34;102755.82;1773424;80;21059;-88
2022/11/30 08:36:22;;;;;;;41.90;27.95;;;;;;;2.36;76.30;102748.92;1780352;80;21050;-86
2022/11/30 08:38:49;;;;;;;40.88;28.05;;;;;;;2.39;76.30;102757.02;1783805;80;21059;-86
2022/11/30 08:41:20;;;;;;;42.67;28.25;;;;;;;2.41;76.20;102760.27;1777640;80;21663;-86
2022/11/30 08:43:47;;;;;;;44.13;28.90;;;;;;;2.37;76.11;102758.17;1775680;80;21760;-86
2022/11/30 08:46:18;;;;;;;40.20;26.75;;;;;;;2.39;76.22;102763.52;1772471;80;21101;-86
2022/11/30 08:48:45;;;;;;;41.90;27.17;;;;;;;2.39;76.09;102763.52;1778492;80;21094;-83
2022/11/30 08:51:14;;;;;;;39.53;27.35;;;;;;;2.34;76.11;102760.48;1780945;80;21050;-86
2022/11/30 08:53:41;;;;;;;40.20;27.15;;;;;;;2.37;76.22;102771.56;1779127;80;21078;-86
2022/11/30 08:56:12;;;;;;;38.48;27.62;;;;;;;2.42;76.27;102770.27;1778271;80;22384;-86
2022/11/30 08:58:40;;;;;;;39.80;27.45;;;;;;;2.45;76.20;102767.55;1771305;80;21058;-86
2022/11/30 09:01:16;;;;;;;39.20;27.60;;;;;;;2.42;76.09;102771.20;1770155;80;21042;-83
2022/11/30 09:03:43;;;;;;;49.00;28.02;;;;;;;2.40;76.10;102774.02;1743471;81;21052;-87
2022/11/30 09:06:14;;;;;;;41.40;27.52;;;;;;;2.43;76.12;102778.60;1737079;81;21070;-87
2022/11/30 09:08:42;;;;;;;39.92;26.33;;;;;;;2.43;76.11;102774.30;1707850;83;21808;-87
2022/11/30 09:11:15;;;;;;;38.17;26.70;;;;;;;2.44;76.08;102776.14;1715323;83;21502;-87
2022/11/30 09:13:42;;;;;;;39.78;26.07;;;;;;;2.47;76.12;102776.41;1706795;83;21514;-83
2022/11/30 09:16:09;;;;;;;42.50;27.35;;;;;;;2.49;76.09;102776.15;1706975;83;21046;-84
2022/11/30 09:18:36;;;;;;;42.30;27.25;;;;;;;2.53;76.12;102776.98;1751000;81;21057;-87
2022/11/30 09:21:07;;;;;;;39.67;28.05;;;;;;;2.58;76.18;102777.38;1709799;83;21794;-87
2022/11/30 09:23:35;;;;;;;39.50;27.22;;;;;;;2.61;76.03;102772.47;1706824;83;21276;-84
2022/11/30 09:26:04;;;;;;;40.38;28.05;;;;;;;2.63;75.99;102779.11;1724391;82;21071;-84
2022/11/30 09:28:31;;;;;;;43.00;28.95;;;;;;;2.62;75.96;102775.97;1716041;82;21080;-84
2022/11/30 09:31:11;;;;;;;42.30;29.40;;;;;;;2.63;75.96;102774.81;1724179;82;21086;-84
2022/11/30 09:33:38;;;;;;;41.20;28.35;;;;;;;2.66;75.89;102777.66;1714833;82;21423;-84
2022/11/30 09:36:13;;;;;;;41.55;28.10;;;;;;;2.67;75.81;102775.60;1720383;82;21115;-83
2022/11/30 09:38:41;;;;;;;41.20;28.35;;;;;;;2.67;75.78;102778.20;1724054;82;21086;-83
2022/11/30 09:41:46;;;;;;;38.85;27.07;;;;;;;2.69;75.77;102777.05;1712943;82;21174;-85
2022/11/30 09:44:33;;;;;;;37.05;25.00;;;;;;;2.71;75.72;102782.89;1720401;82;21043;-83
2022/11/30 09:47:51;;;;;;;40.80;27.80;;;;;;;2.75;75.71;102785.78;1746017;81;22035;-83
2022/11/30 09:50:21;;;;;;;41.23;27.87;;;;;;;2.72;75.64;102782.50;1748827;81;21268;-86
2022/11/30 09:53:03;;;;;;;43.75;29.02;;;;;;;2.75;75.66;102783.18;1694944;83;21090;-85
2022/11/30 09:55:32;;;;;;;40.75;27.27;;;;;;;2.77;75.58;102782.92;1686101;83;21108;-85
2022/11/30 09:58:03;;;;;;;43.70;27.98;;;;;;;2.75;75.51;102771.08;1755737;80;21557;-83
2022/11/30 10:00:30;;;;;;;43.87;28.47;;;;;;;2.73;75.45;102777.84;1758969;80;21756;-86
2022/11/30 10:02:58;;;;;;;46.00;29.32;;;;;;;2.71;75.50;102772.49;1761263;80;21053;-88
2022/11/30 10:05:46;;;;;;;44.75;28.90;;;;;;;2.76;75.58;102771.98;1758817;80;21133;-88
2022/11/30 10:08:27;;;;;;;43.50;29.12;;;;;;;2.80;75.61;102771.51;1750404;81;21601;-85
2022/11/30 10:11:11;;;;;;;43.90;28.25;;;;;;;2.82;75.46;102771.25;1734596;82;21114;-82
2022/11/30 10:14:20;;;;;;;40.90;28.55;;;;;;;2.82;75.48;102769.55;1679143;82;22245;-82
2022/11/30 10:17:17;;;;;;;39.53;28.02;;;;;;;2.86;75.47;102770.74;1759586;80;21381;-85
2022/11/30 10:20:26;;;;;;;40.12;27.32;;;;;;;2.89;75.47;102772.29;1758202;80;21058;-85
2022/11/30 10:23:23;;;;;;;37.85;27.00;;;;;;;2.88;75.31;102763.98;1765035;80;21097;-84
2022/11/30 10:25:57;;;;;;;42.17;27.70;;;;;;;2.88;75.20;102760.98;1768634;80;21059;-83
2022/11/30 10:28:52;;;;;;;40.88;28.00;;;;;;;2.85;75.15;102754.23;1758584;80;21743;-82
2022/11/30 10:31:29;;;;;;;38.10;27.50;;;;;;;2.85;75.21;102758.14;1765748;80;21129;-82
2022/11/30 10:33:58;;;;;;;38.70;26.70;;;;;;;2.85;75.10;102756.83;1761389;80;21062;-82
2022/11/30 10:36:41;;;;;;;40.43;27.80;;;;;;;2.83;75.14;102762.66;1760748;80;21085;-82
2022/11/30 10:39:25;;;;;;;41.88;28.07;;;;;;;2.83;75.15;102766.56;1762757;80;20975;-83
2022/11/30 10:42:06;;;;;;;40.35;28.15;;;;;;;2.85;75.20;102768.54;1764019;80;21987;-83
2022/11/30 10:44:35;;;;;;;40.50;28.02;;;;;;;2.89;75.17;102768.39;1757929;80;20980;-82
2022/11/30 10:47:21;;;;;;;41.75;27.40;;;;;;;2.89;75.09;102766.73;1758597;80;20975;-86
2022/11/30 10:49:52;;;;;;;41.02;27.20;;;;;;;2.91;75.11;102764.27;1769690;80;21494;-86
2022/11/30 10:52:28;;;;;;;38.05;26.35;;;;;;;2.97;75.15;102760.00;1768329;80;21000;-83
2022/11/30 10:54:55;;;;;;;44.15;28.62;;;;;;;2.99;75.10;102763.64;1759547;80;21753;-86
2022/11/30 10:57:25;;;;;;;43.02;29.92;;;;;;;2.97;75.01;102762.20;1760641;80;21432;-82
2022/11/30 10:59:55;;;;;;;44.48;29.30;;;;;;;2.97;74.96;102759.59;1739888;80;21007;-82
2022/11/30 11:02:49;;;;;;;39.80;27.87;;;;;;;2.96;74.94;102764.26;1767412;80;21007;-83
2022/11/30 11:05:24;;;;;;;40.83;27.60;;;;;;;2.94;74.92;102763.22;1766933;80;20987;-86
2022/11/30 11:08:18;;;;;;;43.78;28.45;;;;;;;2.89;74.92;102765.42;1756933;80;21842;-89
2022/11/30 11:10:48;;;;;;;44.98;28.55;;;;;;;2.90;74.89;102766.33;1768752;80;25194;-85
2022/11/30 11:13:36;;;;;;;42.50;28.67;;;;;;;2.90;74.83;102771.13;1739343;80;21077;-86
2022/11/30 11:16:04;;;;;;;42.00;27.73;;;;;;;2.89;74.83;102767.09;1760548;80;21702;-82
2022/11/30 11:18:32;;;;;;;43.00;28.38;;;;;;;2.89;74.77;102764.48;1759761;80;21113;-86
2022/11/30 11:21:13;;;;;;;44.33;29.02;;;;;;;2.90;74.89;102766.33;1733815;82;21781;-83
2022/11/30 11:23:40;;;;;;;46.10;29.70;;;;;;;2.94;75.00;102763.61;1724888;81;21522;-83
2022/11/30 11:26:28;;;;;;;47.38;32.50;;;;;;;2.98;74.94;102765.70;1758576;81;21031;-86
2022/11/30 11:28:58;;;;;;;50.08;31.20;;;;;;;2.98;74.88;102758.80;1757409;81;21063;-86
2022/11/30 11:31:39;;;;;;;48.28;32.15;;;;;;;2.99;74.89;102760.64;1723009;81;21076;-86
2022/11/30 11:34:22;;;;;;;56.05;34.85;;;;;;;2.98;74.75;102764.41;1759575;81;21786;-86
2022/11/30 11:37:06;;;;;;;50.23;35.15;;;;;;;2.96;74.83;102760.75;1760624;81;21065;-83
2022/11/30 11:39:33;;;;;;;49.45;34.33;;;;;;;2.98;74.80;102763.09;1753254;81;21994;-86